CFG27R LFPG-EDDF
Flight info
| Callsign | CFG27R |
|---|---|
| Flight time | 1h 5m |
| Altitude | 23000 |
| Route | RANU6G RANUX DCT VALEK DCT LIPNI UN858 LIMGO Z111 RAMOB IMCO1D |
| Aircraft | A339/H-L/C |
Departure
| Time | 2026-05-08 19:38 |
|---|---|
| Airport | Charles de Gaulle International Airport (LFPG) |
Arrival
| Time | 2026-05-08 20:44 |
|---|---|
| Airport | Frankfurt Main Airport (EDDF) |
| Time | Latitude | Longitude | Altitude | Speed | Heading |
|---|---|---|---|---|---|
| 2026-05-08 19:02 | 49.00533 | 2.56180 | 359 ft | 0 kts | 166° |
| 2026-05-08 19:18 | 49.00534 | 2.56180 | 359 ft | 2 kts | 166° |
| 2026-05-08 19:19 | 49.00558 | 2.56171 | 362 ft | 1 kts | 162° |
| 2026-05-08 19:19 | 49.00565 | 2.56164 | 365 ft | 2 kts | 186° |
| 2026-05-08 19:19 | 49.00593 | 2.56178 | 363 ft | 4 kts | 248° |
| 2026-05-08 19:19 | 49.00594 | 2.56167 | 363 ft | 0 kts | 261° |
| 2026-05-08 19:21 | 49.00593 | 2.56159 | 363 ft | 3 kts | 261° |
| 2026-05-08 19:21 | 49.00584 | 2.56070 | 363 ft | 14 kts | 261° |
| 2026-05-08 19:21 | 49.00571 | 2.55908 | 359 ft | 8 kts | 264° |
| 2026-05-08 19:21 | 49.00570 | 2.55875 | 361 ft | 0 kts | 265° |
| 2026-05-08 19:22 | 49.00567 | 2.55834 | 365 ft | 9 kts | 265° |
| 2026-05-08 19:22 | 49.00564 | 2.55769 | 366 ft | 0 kts | 265° |
| 2026-05-08 19:22 | 49.00563 | 2.55752 | 365 ft | 4 kts | 265° |
| 2026-05-08 19:23 | 49.00562 | 2.55733 | 359 ft | 0 kts | 265° |
| 2026-05-08 19:23 | 49.00561 | 2.55718 | 365 ft | 5 kts | 265° |
| 2026-05-08 19:23 | 49.00558 | 2.55675 | 362 ft | 0 kts | 265° |
| 2026-05-08 19:26 | 49.00556 | 2.55628 | 359 ft | 9 kts | 265° |
| 2026-05-08 19:26 | 49.00550 | 2.55499 | 362 ft | 13 kts | 265° |
| 2026-05-08 19:26 | 49.00592 | 2.55414 | 367 ft | 8 kts | 331° |
| 2026-05-08 19:26 | 49.00635 | 2.55390 | 362 ft | 6 kts | 342° |
| 2026-05-08 19:27 | 49.00683 | 2.55367 | 363 ft | 8 kts | 343° |
| 2026-05-08 19:27 | 49.00746 | 2.55340 | 366 ft | 10 kts | 344° |
| 2026-05-08 19:27 | 49.00821 | 2.55307 | 366 ft | 12 kts | 344° |
| 2026-05-08 19:27 | 49.00908 | 2.55269 | 362 ft | 14 kts | 344° |
| 2026-05-08 19:28 | 49.01007 | 2.55227 | 366 ft | 15 kts | 344° |
| 2026-05-08 19:28 | 49.01101 | 2.55187 | 365 ft | 11 kts | 344° |
| 2026-05-08 19:28 | 49.01181 | 2.55160 | 365 ft | 14 kts | 356° |
| 2026-05-08 19:28 | 49.01296 | 2.55210 | 367 ft | 17 kts | 18° |
| 2026-05-08 19:29 | 49.01415 | 2.55191 | 361 ft | 18 kts | 346° |
| 2026-05-08 19:29 | 49.01539 | 2.55164 | 367 ft | 19 kts | 355° |
| 2026-05-08 19:29 | 49.01618 | 2.55155 | 363 ft | 10 kts | 355° |
| 2026-05-08 19:29 | 49.01693 | 2.55146 | 364 ft | 14 kts | 355° |
| 2026-05-08 19:30 | 49.01766 | 2.55138 | 367 ft | 0 kts | 355° |
| 2026-05-08 19:30 | 49.01770 | 2.55137 | 367 ft | 3 kts | 355° |
| 2026-05-08 19:30 | 49.01829 | 2.55120 | 362 ft | 13 kts | 333° |
| 2026-05-08 19:31 | 49.01853 | 2.54954 | 361 ft | 21 kts | 265° |
| 2026-05-08 19:31 | 49.01840 | 2.54705 | 361 ft | 24 kts | 265° |
| 2026-05-08 19:31 | 49.01827 | 2.54441 | 366 ft | 25 kts | 266° |
| 2026-05-08 19:31 | 49.01815 | 2.54164 | 366 ft | 27 kts | 266° |
| 2026-05-08 19:32 | 49.01797 | 2.53876 | 362 ft | 28 kts | 263° |
| 2026-05-08 19:32 | 49.01780 | 2.53585 | 363 ft | 28 kts | 265° |
| 2026-05-08 19:32 | 49.01764 | 2.53282 | 360 ft | 29 kts | 266° |
| 2026-05-08 19:32 | 49.01749 | 2.52972 | 360 ft | 30 kts | 265° |
| 2026-05-08 19:33 | 49.01744 | 2.52869 | 366 ft | 5 kts | 265° |
| 2026-05-08 19:33 | 49.01737 | 2.52757 | 364 ft | 17 kts | 265° |
| 2026-05-08 19:33 | 49.01726 | 2.52543 | 364 ft | 22 kts | 265° |
| 2026-05-08 19:33 | 49.01714 | 2.52305 | 366 ft | 19 kts | 266° |
| 2026-05-08 19:34 | 49.01731 | 2.52163 | 364 ft | 8 kts | 323° |
| 2026-05-08 19:34 | 49.01786 | 2.52141 | 361 ft | 8 kts | 354° |
| 2026-05-08 19:34 | 49.01851 | 2.52132 | 364 ft | 10 kts | 355° |
| 2026-05-08 19:34 | 49.01929 | 2.52119 | 367 ft | 12 kts | 353° |
| 2026-05-08 19:35 | 49.01980 | 2.52112 | 365 ft | 0 kts | 355° |
| 2026-05-08 19:36 | 49.02012 | 2.52108 | 362 ft | 10 kts | 355° |
| 2026-05-08 19:36 | 49.02094 | 2.52141 | 363 ft | 14 kts | 44° |
| 2026-05-08 19:36 | 49.02112 | 2.52219 | 364 ft | 0 kts | 83° |
| 2026-05-08 19:38 | 49.02120 | 2.52344 | 366 ft | 49 kts | 86° |
| 2026-05-08 19:38 | 49.02177 | 2.53389 | 366 ft | 144 kts | 85° |
| 2026-05-08 19:38 | 49.02277 | 2.55235 | 618 ft | 192 kts | 84° |
| 2026-05-08 19:38 | 49.02366 | 2.57308 | 1496 ft | 197 kts | 85° |
| 2026-05-08 19:39 | 49.02467 | 2.59312 | 2728 ft | 192 kts | 85° |
| 2026-05-08 19:39 | 49.02590 | 2.61449 | 3388 ft | 214 kts | 85° |
| 2026-05-08 19:39 | 49.02725 | 2.63814 | 3974 ft | 234 kts | 85° |
| 2026-05-08 19:39 | 49.02868 | 2.66387 | 4477 ft | 254 kts | 86° |
| 2026-05-08 19:40 | 49.03015 | 2.69125 | 5133 ft | 262 kts | 86° |
| 2026-05-08 19:40 | 49.03165 | 2.71933 | 5909 ft | 267 kts | 86° |
| 2026-05-08 19:40 | 49.03310 | 2.74795 | 6663 ft | 273 kts | 87° |
| 2026-05-08 19:40 | 49.03451 | 2.77713 | 7370 ft | 279 kts | 87° |
| 2026-05-08 19:41 | 49.03592 | 2.80695 | 8117 ft | 284 kts | 87° |
| 2026-05-08 19:41 | 49.03733 | 2.83686 | 8880 ft | 289 kts | 86° |
| 2026-05-08 19:41 | 49.03880 | 2.86771 | 9630 ft | 295 kts | 86° |
| 2026-05-08 19:41 | 49.04029 | 2.89921 | 10328 ft | 302 kts | 86° |
| 2026-05-08 19:42 | 49.04185 | 2.93245 | 10602 ft | 324 kts | 86° |
| 2026-05-08 19:42 | 49.04397 | 2.96795 | 10843 ft | 345 kts | 84° |
| 2026-05-08 19:42 | 49.04680 | 3.00469 | 11443 ft | 351 kts | 84° |
| 2026-05-08 19:42 | 49.04976 | 3.04184 | 12151 ft | 354 kts | 84° |
| 2026-05-08 19:43 | 49.05265 | 3.07885 | 12861 ft | 358 kts | 84° |
| 2026-05-08 19:43 | 49.05554 | 3.11720 | 13570 ft | 361 kts | 84° |
| 2026-05-08 19:43 | 49.05834 | 3.15540 | 14242 ft | 364 kts | 84° |
| 2026-05-08 19:43 | 49.06113 | 3.19394 | 14894 ft | 367 kts | 84° |
| 2026-05-08 19:44 | 49.06387 | 3.23227 | 15530 ft | 369 kts | 84° |
| 2026-05-08 19:44 | 49.06665 | 3.27138 | 16174 ft | 372 kts | 84° |
| 2026-05-08 19:44 | 49.06971 | 3.31061 | 16769 ft | 375 kts | 80° |
| 2026-05-08 19:44 | 49.07630 | 3.34932 | 17374 ft | 378 kts | 73° |
| 2026-05-08 19:45 | 49.08401 | 3.38783 | 17992 ft | 381 kts | 72° |
| 2026-05-08 19:45 | 49.09193 | 3.42663 | 18587 ft | 384 kts | 72° |
| 2026-05-08 19:45 | 49.09973 | 3.46569 | 19137 ft | 387 kts | 72° |
| 2026-05-08 19:45 | 49.10744 | 3.50522 | 19695 ft | 390 kts | 72° |
| 2026-05-08 19:46 | 49.11507 | 3.54511 | 20230 ft | 393 kts | 72° |
| 2026-05-08 19:46 | 49.12273 | 3.58549 | 20788 ft | 396 kts | 72° |
| 2026-05-08 19:46 | 49.13804 | 3.66677 | 21898 ft | 403 kts | 71° |
| 2026-05-08 19:47 | 49.14581 | 3.70814 | 22453 ft | 406 kts | 71° |
| 2026-05-08 19:47 | 49.15363 | 3.74977 | 22925 ft | 410 kts | 71° |
| 2026-05-08 19:47 | 49.16158 | 3.79210 | 23057 ft | 421 kts | 71° |
| 2026-05-08 19:47 | 49.16983 | 3.83604 | 23060 ft | 438 kts | 71° |
| 2026-05-08 19:48 | 49.17837 | 3.88164 | 23054 ft | 453 kts | 71° |
| 2026-05-08 19:48 | 49.18697 | 3.92780 | 23050 ft | 457 kts | 72° |
| 2026-05-08 19:48 | 49.19562 | 3.97453 | 23053 ft | 456 kts | 72° |
| 2026-05-08 19:48 | 49.20424 | 4.02117 | 23047 ft | 456 kts | 72° |
| 2026-05-08 19:49 | 49.21282 | 4.06770 | 23053 ft | 456 kts | 72° |
| 2026-05-08 19:49 | 49.22138 | 4.11415 | 23046 ft | 455 kts | 72° |
| 2026-05-08 19:49 | 49.22998 | 4.16094 | 23049 ft | 455 kts | 72° |
| 2026-05-08 19:49 | 49.23852 | 4.20753 | 23049 ft | 454 kts | 72° |
| 2026-05-08 19:50 | 49.24703 | 4.25404 | 23049 ft | 454 kts | 72° |
| 2026-05-08 19:50 | 49.25551 | 4.30056 | 23048 ft | 454 kts | 73° |
| 2026-05-08 19:50 | 49.26400 | 4.34718 | 23050 ft | 453 kts | 73° |
| 2026-05-08 19:50 | 49.27242 | 4.39357 | 23053 ft | 453 kts | 73° |
| 2026-05-08 19:51 | 49.28085 | 4.44014 | 23062 ft | 453 kts | 73° |
| 2026-05-08 19:51 | 49.28916 | 4.48618 | 23064 ft | 452 kts | 73° |
| 2026-05-08 19:51 | 49.29755 | 4.53271 | 23068 ft | 452 kts | 73° |
| 2026-05-08 19:51 | 49.30590 | 4.57912 | 23071 ft | 452 kts | 73° |
| 2026-05-08 19:52 | 49.31425 | 4.62568 | 23070 ft | 452 kts | 73° |
| 2026-05-08 19:52 | 49.32256 | 4.67214 | 23074 ft | 452 kts | 73° |
| 2026-05-08 19:52 | 49.33089 | 4.71885 | 23074 ft | 452 kts | 74° |
| 2026-05-08 19:52 | 49.33920 | 4.76547 | 23072 ft | 453 kts | 74° |
| 2026-05-08 19:53 | 49.34747 | 4.81205 | 23078 ft | 452 kts | 74° |
| 2026-05-08 19:53 | 49.35560 | 4.85803 | 23080 ft | 452 kts | 74° |
| 2026-05-08 19:53 | 49.36382 | 4.90462 | 23074 ft | 453 kts | 74° |
| 2026-05-08 19:53 | 49.36937 | 4.93613 | 23075 ft | 453 kts | 74° |
| 2026-05-08 19:54 | 49.37755 | 4.98269 | 23076 ft | 453 kts | 74° |
| 2026-05-08 19:54 | 49.38576 | 5.02955 | 23084 ft | 453 kts | 74° |
| 2026-05-08 19:54 | 49.39395 | 5.07639 | 23085 ft | 454 kts | 74° |
| 2026-05-08 19:54 | 49.40212 | 5.12325 | 23077 ft | 454 kts | 75° |
| 2026-05-08 19:55 | 49.41027 | 5.17011 | 23081 ft | 454 kts | 75° |
| 2026-05-08 19:55 | 49.41838 | 5.21693 | 23086 ft | 455 kts | 75° |
| 2026-05-08 19:55 | 49.42650 | 5.26383 | 23083 ft | 455 kts | 75° |
| 2026-05-08 19:55 | 49.43462 | 5.31090 | 23083 ft | 455 kts | 75° |
| 2026-05-08 19:56 | 49.44318 | 5.35768 | 23076 ft | 455 kts | 70° |
| 2026-05-08 19:56 | 49.45551 | 5.40245 | 23089 ft | 455 kts | 65° |
| 2026-05-08 19:56 | 49.46885 | 5.44667 | 23088 ft | 455 kts | 64° |
| 2026-05-08 19:56 | 49.48220 | 5.49091 | 23086 ft | 455 kts | 64° |
| 2026-05-08 19:57 | 49.49550 | 5.53510 | 23084 ft | 456 kts | 65° |
| 2026-05-08 19:57 | 49.50880 | 5.57937 | 23086 ft | 456 kts | 65° |
| 2026-05-08 19:57 | 49.52191 | 5.62319 | 23086 ft | 456 kts | 65° |
| 2026-05-08 19:57 | 49.53533 | 5.66813 | 23088 ft | 456 kts | 65° |
| 2026-05-08 19:58 | 49.54839 | 5.71200 | 23092 ft | 456 kts | 65° |
| 2026-05-08 19:58 | 49.56160 | 5.75645 | 23098 ft | 456 kts | 65° |
| 2026-05-08 19:58 | 49.57481 | 5.80098 | 23096 ft | 456 kts | 65° |
| 2026-05-08 19:58 | 49.58796 | 5.84539 | 23097 ft | 456 kts | 65° |
| 2026-05-08 19:59 | 49.60114 | 5.88998 | 23096 ft | 457 kts | 65° |
| 2026-05-08 19:59 | 49.61429 | 5.93452 | 23099 ft | 456 kts | 65° |
| 2026-05-08 19:59 | 49.62741 | 5.97908 | 23097 ft | 456 kts | 65° |
| 2026-05-08 19:59 | 49.64052 | 6.02369 | 23104 ft | 457 kts | 65° |
| 2026-05-08 20:00 | 49.65362 | 6.06833 | 23102 ft | 457 kts | 65° |
| 2026-05-08 20:00 | 49.66627 | 6.11153 | 23099 ft | 457 kts | 65° |
| 2026-05-08 20:00 | 49.67935 | 6.15628 | 23099 ft | 457 kts | 65° |
| 2026-05-08 20:00 | 49.69239 | 6.20097 | 23105 ft | 457 kts | 65° |
| 2026-05-08 20:01 | 49.70546 | 6.24582 | 23101 ft | 457 kts | 65° |
| 2026-05-08 20:01 | 49.71847 | 6.29060 | 23097 ft | 457 kts | 65° |
| 2026-05-08 20:01 | 49.73134 | 6.33493 | 23100 ft | 457 kts | 66° |
| 2026-05-08 20:01 | 49.74438 | 6.37996 | 23098 ft | 458 kts | 66° |
| 2026-05-08 20:02 | 49.75741 | 6.42505 | 23104 ft | 458 kts | 66° |
| 2026-05-08 20:02 | 49.77038 | 6.46996 | 23101 ft | 458 kts | 65° |
| 2026-05-08 20:02 | 49.78583 | 6.51301 | 23090 ft | 458 kts | 56° |
| 2026-05-08 20:02 | 49.80473 | 6.55285 | 23091 ft | 459 kts | 53° |
| 2026-05-08 20:03 | 49.82383 | 6.59238 | 23087 ft | 458 kts | 53° |
| 2026-05-08 20:03 | 49.84293 | 6.63190 | 23102 ft | 458 kts | 53° |
| 2026-05-08 20:03 | 49.86181 | 6.67101 | 23107 ft | 458 kts | 53° |
| 2026-05-08 20:03 | 49.88114 | 6.71106 | 23104 ft | 459 kts | 53° |
| 2026-05-08 20:04 | 49.89996 | 6.75007 | 23097 ft | 449 kts | 53° |
| 2026-05-08 20:04 | 49.91821 | 6.78795 | 23095 ft | 426 kts | 53° |
| 2026-05-08 20:04 | 49.93547 | 6.82388 | 23097 ft | 403 kts | 53° |
| 2026-05-08 20:04 | 49.95191 | 6.85812 | 23102 ft | 392 kts | 53° |
| 2026-05-08 20:05 | 49.96831 | 6.89231 | 23102 ft | 398 kts | 53° |
| 2026-05-08 20:05 | 49.98466 | 6.92646 | 23097 ft | 384 kts | 53° |
| 2026-05-08 20:05 | 50.00023 | 6.95900 | 23105 ft | 364 kts | 53° |
| 2026-05-08 20:05 | 50.01504 | 6.98998 | 22941 ft | 352 kts | 53° |
| 2026-05-08 20:06 | 50.02964 | 7.02058 | 22363 ft | 352 kts | 53° |
| 2026-05-08 20:06 | 50.04418 | 7.05107 | 21788 ft | 350 kts | 53° |
| 2026-05-08 20:06 | 50.05848 | 7.08104 | 21267 ft | 347 kts | 53° |
| 2026-05-08 20:06 | 50.07282 | 7.11112 | 20722 ft | 345 kts | 53° |
| 2026-05-08 20:07 | 50.08702 | 7.14091 | 20097 ft | 342 kts | 53° |
| 2026-05-08 20:07 | 50.10114 | 7.17054 | 19476 ft | 339 kts | 53° |
| 2026-05-08 20:07 | 50.11515 | 7.19999 | 18872 ft | 336 kts | 53° |
| 2026-05-08 20:07 | 50.12899 | 7.22907 | 18254 ft | 332 kts | 53° |
| 2026-05-08 20:08 | 50.14267 | 7.25778 | 17589 ft | 329 kts | 53° |
| 2026-05-08 20:08 | 50.15629 | 7.28622 | 16923 ft | 325 kts | 53° |
| 2026-05-08 20:08 | 50.16980 | 7.31437 | 16276 ft | 323 kts | 53° |
| 2026-05-08 20:08 | 50.18319 | 7.34222 | 15642 ft | 319 kts | 53° |
| 2026-05-08 20:09 | 50.19315 | 7.37279 | 15023 ft | 317 kts | 75° |
| 2026-05-08 20:09 | 50.19516 | 7.40673 | 14420 ft | 315 kts | 97° |
| 2026-05-08 20:09 | 50.18909 | 7.43910 | 13832 ft | 309 kts | 116° |
| 2026-05-08 20:09 | 50.17950 | 7.46874 | 13162 ft | 303 kts | 120° |
| 2026-05-08 20:10 | 50.16957 | 7.49748 | 12517 ft | 300 kts | 120° |
| 2026-05-08 20:10 | 50.16000 | 7.52599 | 11862 ft | 292 kts | 118° |
| 2026-05-08 20:10 | 50.15102 | 7.55398 | 11341 ft | 281 kts | 117° |
| 2026-05-08 20:10 | 50.14283 | 7.58045 | 11159 ft | 260 kts | 117° |
| 2026-05-08 20:11 | 50.13506 | 7.60583 | 11129 ft | 265 kts | 117° |
| 2026-05-08 20:11 | 50.12717 | 7.63165 | 11121 ft | 262 kts | 117° |
| 2026-05-08 20:11 | 50.11931 | 7.65743 | 11123 ft | 263 kts | 117° |
| 2026-05-08 20:11 | 50.11156 | 7.68327 | 11118 ft | 263 kts | 115° |
| 2026-05-08 20:12 | 50.10582 | 7.71040 | 11121 ft | 264 kts | 108° |
| 2026-05-08 20:12 | 50.10069 | 7.73793 | 11118 ft | 265 kts | 108° |
| 2026-05-08 20:12 | 50.09552 | 7.76526 | 11024 ft | 261 kts | 108° |
| 2026-05-08 20:12 | 50.09034 | 7.79229 | 10671 ft | 260 kts | 108° |
| 2026-05-08 20:13 | 50.08510 | 7.81929 | 10178 ft | 260 kts | 108° |
| 2026-05-08 20:13 | 50.08035 | 7.84600 | 9609 ft | 260 kts | 101° |
| 2026-05-08 20:13 | 50.08104 | 7.87387 | 9085 ft | 258 kts | 76° |
| 2026-05-08 20:13 | 50.08741 | 7.89980 | 8587 ft | 255 kts | 67° |
| 2026-05-08 20:14 | 50.09417 | 7.92522 | 8121 ft | 252 kts | 68° |
| 2026-05-08 20:14 | 50.10065 | 7.95046 | 7657 ft | 250 kts | 68° |
| 2026-05-08 20:14 | 50.10689 | 7.97552 | 7266 ft | 245 kts | 69° |
| 2026-05-08 20:14 | 50.11298 | 8.00037 | 7143 ft | 248 kts | 69° |
| 2026-05-08 20:15 | 50.11908 | 8.02546 | 7115 ft | 247 kts | 69° |
| 2026-05-08 20:15 | 50.12516 | 8.05054 | 7128 ft | 247 kts | 69° |
| 2026-05-08 20:15 | 50.13125 | 8.07565 | 7126 ft | 248 kts | 69° |
| 2026-05-08 20:15 | 50.13736 | 8.10083 | 7112 ft | 248 kts | 69° |
| 2026-05-08 20:16 | 50.14344 | 8.12591 | 7117 ft | 247 kts | 69° |
| 2026-05-08 20:16 | 50.14952 | 8.15098 | 7126 ft | 248 kts | 69° |
| 2026-05-08 20:16 | 50.15555 | 8.17588 | 7110 ft | 248 kts | 69° |
| 2026-05-08 20:16 | 50.16164 | 8.20107 | 7111 ft | 248 kts | 69° |
| 2026-05-08 20:17 | 50.16769 | 8.22610 | 7129 ft | 248 kts | 69° |
| 2026-05-08 20:17 | 50.17378 | 8.25133 | 7111 ft | 248 kts | 69° |
| 2026-05-08 20:17 | 50.17985 | 8.27646 | 7111 ft | 247 kts | 69° |
| 2026-05-08 20:17 | 50.18593 | 8.30171 | 7126 ft | 248 kts | 69° |
| 2026-05-08 20:18 | 50.19200 | 8.32691 | 7128 ft | 248 kts | 69° |
| 2026-05-08 20:18 | 50.19762 | 8.35232 | 7099 ft | 248 kts | 78° |
| 2026-05-08 20:18 | 50.19726 | 8.37864 | 7126 ft | 247 kts | 105° |
| 2026-05-08 20:18 | 50.18915 | 8.40198 | 7133 ft | 246 kts | 134° |
| 2026-05-08 20:19 | 50.17513 | 8.41673 | 7129 ft | 245 kts | 159° |
| 2026-05-08 20:19 | 50.15988 | 8.42828 | 7072 ft | 246 kts | 146° |
| 2026-05-08 20:19 | 50.14879 | 8.44831 | 6875 ft | 238 kts | 116° |
| 2026-05-08 20:19 | 50.14534 | 8.47377 | 7069 ft | 249 kts | 89° |
| 2026-05-08 20:20 | 50.14959 | 8.49974 | 7096 ft | 248 kts | 61° |
| 2026-05-08 20:20 | 50.16087 | 8.51966 | 7116 ft | 246 kts | 34° |
| 2026-05-08 20:20 | 50.17502 | 8.53486 | 7118 ft | 247 kts | 33° |
| 2026-05-08 20:20 | 50.18914 | 8.55005 | 7099 ft | 247 kts | 33° |
| 2026-05-08 20:21 | 50.20321 | 8.56516 | 7097 ft | 247 kts | 33° |
| 2026-05-08 20:21 | 50.21729 | 8.58029 | 7117 ft | 247 kts | 33° |
| 2026-05-08 20:21 | 50.23047 | 8.59738 | 7127 ft | 248 kts | 50° |
| 2026-05-08 20:21 | 50.23802 | 8.62144 | 7119 ft | 249 kts | 77° |
| 2026-05-08 20:22 | 50.23776 | 8.64826 | 7105 ft | 249 kts | 105° |
| 2026-05-08 20:22 | 50.22965 | 8.67178 | 7099 ft | 247 kts | 134° |
| 2026-05-08 20:22 | 50.21557 | 8.68646 | 7121 ft | 244 kts | 162° |
| 2026-05-08 20:22 | 50.20456 | 8.68952 | 7108 ft | 242 kts | 182° |
| 2026-05-08 20:23 | 50.18387 | 8.67842 | 7111 ft | 239 kts | 220° |
| 2026-05-08 20:23 | 50.17331 | 8.65845 | 7094 ft | 238 kts | 240° |
| 2026-05-08 20:23 | 50.16605 | 8.63530 | 7114 ft | 238 kts | 248° |
| 2026-05-08 20:23 | 50.15992 | 8.61139 | 7114 ft | 238 kts | 250° |
| 2026-05-08 20:24 | 50.15393 | 8.58764 | 7092 ft | 238 kts | 249° |
| 2026-05-08 20:24 | 50.14767 | 8.56391 | 7029 ft | 236 kts | 248° |
| 2026-05-08 20:24 | 50.14124 | 8.54059 | 6862 ft | 228 kts | 247° |
| 2026-05-08 20:24 | 50.13505 | 8.51877 | 6703 ft | 215 kts | 247° |
| 2026-05-08 20:25 | 50.12900 | 8.49767 | 6307 ft | 214 kts | 246° |
| 2026-05-08 20:25 | 50.12292 | 8.47647 | 5896 ft | 214 kts | 246° |
| 2026-05-08 20:25 | 50.11688 | 8.45534 | 5495 ft | 214 kts | 246° |
| 2026-05-08 20:25 | 50.11101 | 8.43404 | 5122 ft | 213 kts | 249° |
| 2026-05-08 20:26 | 50.10579 | 8.41241 | 5030 ft | 217 kts | 250° |
| 2026-05-08 20:26 | 50.10052 | 8.39048 | 5015 ft | 215 kts | 250° |
| 2026-05-08 20:26 | 50.09526 | 8.36870 | 5015 ft | 215 kts | 249° |
| 2026-05-08 20:26 | 50.08995 | 8.34681 | 5016 ft | 215 kts | 249° |
| 2026-05-08 20:27 | 50.08472 | 8.32534 | 5017 ft | 216 kts | 249° |
| 2026-05-08 20:27 | 50.07941 | 8.30352 | 5015 ft | 216 kts | 249° |
| 2026-05-08 20:27 | 50.07401 | 8.28143 | 5015 ft | 216 kts | 249° |
| 2026-05-08 20:27 | 50.06874 | 8.25983 | 5017 ft | 216 kts | 249° |
| 2026-05-08 20:28 | 50.06343 | 8.23802 | 5015 ft | 216 kts | 249° |
| 2026-05-08 20:28 | 50.05809 | 8.21616 | 5020 ft | 216 kts | 249° |
| 2026-05-08 20:28 | 50.05275 | 8.19429 | 5019 ft | 216 kts | 249° |
| 2026-05-08 20:28 | 50.04719 | 8.17155 | 5021 ft | 233 kts | 249° |
| 2026-05-08 20:29 | 50.04133 | 8.14759 | 5016 ft | 237 kts | 249° |
| 2026-05-08 20:29 | 50.03547 | 8.12362 | 5015 ft | 237 kts | 249° |
| 2026-05-08 20:29 | 50.02959 | 8.09963 | 5015 ft | 237 kts | 249° |
| 2026-05-08 20:29 | 50.02373 | 8.07565 | 5015 ft | 237 kts | 249° |
| 2026-05-08 20:30 | 50.01787 | 8.05163 | 5015 ft | 237 kts | 249° |
| 2026-05-08 20:30 | 50.01203 | 8.02773 | 5017 ft | 237 kts | 249° |
| 2026-05-08 20:30 | 50.00615 | 8.00367 | 5014 ft | 237 kts | 249° |
| 2026-05-08 20:30 | 50.00034 | 7.97995 | 5014 ft | 238 kts | 249° |
| 2026-05-08 20:31 | 49.99446 | 7.95593 | 5016 ft | 237 kts | 249° |
| 2026-05-08 20:31 | 49.98857 | 7.93197 | 5013 ft | 237 kts | 249° |
| 2026-05-08 20:31 | 49.98267 | 7.90797 | 5011 ft | 238 kts | 249° |
| 2026-05-08 20:31 | 49.97675 | 7.88391 | 5012 ft | 238 kts | 249° |
| 2026-05-08 20:32 | 49.97084 | 7.85987 | 5011 ft | 238 kts | 249° |
| 2026-05-08 20:32 | 49.96492 | 7.83588 | 5011 ft | 238 kts | 249° |
| 2026-05-08 20:32 | 49.95899 | 7.81188 | 5009 ft | 238 kts | 249° |
| 2026-05-08 20:32 | 49.95139 | 7.78918 | 5013 ft | 238 kts | 230° |
| 2026-05-08 20:33 | 49.93817 | 7.77425 | 5015 ft | 237 kts | 201° |
| 2026-05-08 20:33 | 49.92200 | 7.77112 | 5011 ft | 236 kts | 171° |
| 2026-05-08 20:33 | 49.90704 | 7.78066 | 5011 ft | 234 kts | 142° |
| 2026-05-08 20:33 | 49.89731 | 7.80003 | 5008 ft | 233 kts | 112° |
| 2026-05-08 20:34 | 49.89455 | 7.82462 | 5011 ft | 233 kts | 92° |
| 2026-05-08 20:34 | 49.89527 | 7.84950 | 5014 ft | 226 kts | 78° |
| 2026-05-08 20:34 | 49.90167 | 7.89259 | 5005 ft | 185 kts | 83° |
| 2026-05-08 20:35 | 49.90282 | 7.91191 | 5013 ft | 181 kts | 84° |
| 2026-05-08 20:35 | 49.90403 | 7.93146 | 5006 ft | 180 kts | 83° |
| 2026-05-08 20:35 | 49.90647 | 7.95044 | 5011 ft | 181 kts | 75° |
| 2026-05-08 20:35 | 49.91037 | 7.96904 | 5010 ft | 180 kts | 70° |
| 2026-05-08 20:36 | 49.91476 | 7.98717 | 5011 ft | 180 kts | 69° |
| 2026-05-08 20:36 | 49.91770 | 7.99924 | 5013 ft | 181 kts | 69° |
| 2026-05-08 20:36 | 49.92207 | 8.01747 | 5014 ft | 181 kts | 69° |
| 2026-05-08 20:36 | 49.92646 | 8.03578 | 5012 ft | 181 kts | 70° |
| 2026-05-08 20:37 | 49.93084 | 8.05405 | 5016 ft | 180 kts | 70° |
| 2026-05-08 20:37 | 49.93522 | 8.07230 | 5017 ft | 180 kts | 70° |
| 2026-05-08 20:37 | 49.94103 | 8.09652 | 5012 ft | 181 kts | 70° |
| 2026-05-08 20:37 | 49.94400 | 8.10887 | 5014 ft | 180 kts | 70° |
| 2026-05-08 20:38 | 49.94838 | 8.12716 | 5013 ft | 181 kts | 70° |
| 2026-05-08 20:38 | 49.95271 | 8.14518 | 5013 ft | 181 kts | 70° |
| 2026-05-08 20:38 | 49.95714 | 8.16367 | 5004 ft | 181 kts | 70° |
| 2026-05-08 20:38 | 49.96150 | 8.18181 | 4858 ft | 181 kts | 70° |
| 2026-05-08 20:39 | 49.96587 | 8.20005 | 4591 ft | 179 kts | 70° |
| 2026-05-08 20:39 | 49.97022 | 8.21815 | 4330 ft | 177 kts | 70° |
| 2026-05-08 20:39 | 49.97451 | 8.23602 | 4081 ft | 176 kts | 70° |
| 2026-05-08 20:39 | 49.97874 | 8.25368 | 3839 ft | 174 kts | 70° |
| 2026-05-08 20:40 | 49.98298 | 8.27135 | 3581 ft | 173 kts | 70° |
| 2026-05-08 20:40 | 49.98715 | 8.28874 | 3331 ft | 171 kts | 70° |
| 2026-05-08 20:40 | 49.99130 | 8.30606 | 3092 ft | 171 kts | 70° |
| 2026-05-08 20:40 | 49.99544 | 8.32332 | 2837 ft | 170 kts | 70° |
| 2026-05-08 20:41 | 49.99948 | 8.34020 | 2603 ft | 168 kts | 70° |
| 2026-05-08 20:41 | 50.00355 | 8.35715 | 2362 ft | 168 kts | 70° |
| 2026-05-08 20:41 | 50.00761 | 8.37412 | 2114 ft | 164 kts | 70° |
| 2026-05-08 20:41 | 50.01151 | 8.39041 | 1887 ft | 156 kts | 70° |
| 2026-05-08 20:42 | 50.01510 | 8.40536 | 1666 ft | 142 kts | 70° |
| 2026-05-08 20:42 | 50.01865 | 8.42021 | 1456 ft | 145 kts | 70° |
| 2026-05-08 20:42 | 50.02218 | 8.43491 | 1257 ft | 151 kts | 69° |
| 2026-05-08 20:42 | 50.02575 | 8.44990 | 1036 ft | 144 kts | 69° |
| 2026-05-08 20:43 | 50.02922 | 8.46459 | 850 ft | 147 kts | 68° |
| 2026-05-08 20:43 | 50.03277 | 8.47927 | 657 ft | 140 kts | 67° |
| 2026-05-08 20:43 | 50.03607 | 8.49317 | 409 ft | 133 kts | 66° |
| 2026-05-08 20:43 | 50.03920 | 8.50642 | 327 ft | 118 kts | 65° |
| 2026-05-08 20:44 | 50.04134 | 8.51478 | 349 ft | 72 kts | 71° |
| 2026-05-08 20:44 | 50.04230 | 8.51928 | 356 ft | 33 kts | 78° |
| 2026-05-08 20:44 | 50.04224 | 8.52266 | 357 ft | 21 kts | 100° |
| 2026-05-08 20:44 | 50.04198 | 8.52514 | 353 ft | 22 kts | 98° |
| 2026-05-08 20:45 | 50.04218 | 8.52754 | 362 ft | 24 kts | 71° |
| 2026-05-08 20:45 | 50.04278 | 8.52995 | 364 ft | 23 kts | 68° |
| 2026-05-08 20:45 | 50.04334 | 8.53225 | 367 ft | 22 kts | 68° |
| 2026-05-08 20:45 | 50.04384 | 8.53435 | 374 ft | 19 kts | 70° |
| 2026-05-08 20:46 | 50.04405 | 8.53629 | 373 ft | 18 kts | 83° |
| 2026-05-08 20:46 | 50.04417 | 8.53832 | 375 ft | 18 kts | 83° |
| 2026-05-08 20:46 | 50.04429 | 8.54007 | 380 ft | 16 kts | 84° |
| 2026-05-08 20:46 | 50.04441 | 8.54185 | 379 ft | 18 kts | 83° |
| 2026-05-08 20:47 | 50.04449 | 8.54424 | 359 ft | 9 kts | 90° |
| 2026-05-08 20:47 | 50.04445 | 8.54507 | 360 ft | 12 kts | 97° |
| 2026-05-08 20:47 | 50.04400 | 8.54656 | 358 ft | 16 kts | 126° |
| 2026-05-08 20:47 | 50.04316 | 8.54767 | 362 ft | 13 kts | 151° |
| 2026-05-08 20:48 | 50.04249 | 8.54810 | 360 ft | 12 kts | 157° |